메인 페이지
METAR-TAF:

METAR-TAF

공항 :

하르툼 국제공항

하르툼, 수단

위도: 15-36N, 경도: 032-33E, 고도: 382m

현재 날씨관측

예보는 45분 전, 16:00시(UTC)에 발표되었습니다.
10kt
온도 42°C
습도 8%
기압 1008 hPa
시정: 8000m

METAR: HSSS 311600Z 36010KT 8000 42/01 Q1008 NOSIG

시각: 18:45 (16:45 UTC)

예보

예보는 5 시간 45분 전, 11:00시(UTC)에 발표되었습니다.
예보 대상 시간: 31일 12시부터 01일 18시까지 (UTC)
12kt, 순간 최대 풍속 22kt
시정 10km 이상
1500m 미만 상공 구름 및 적란운 없음
일시적
31일 12시부터 31일 18시까지 (UTC)
시정: 6000m

TAF: HSSS 311100Z 3112/0118 36012G22KT CAVOK TEMPO 3112/3118 6000

4,000개 이상의 공항 관측 자료 및 예보 (METAR 및 TAF 보고).

지도상에서 검색 가능한 기상관측소가 노란 점과 빨간 점으로 표시되어 있습니다.

기상관측소 명을 보려면 표시 위로 마우스를 이동하세요.

날씨 관측과 예보를 보려면 클릭하세요.

지도 변경 : 확대하려면 엑스 표시가 있는 녹색 버튼, 축소하려면 빼기 표시가 있는 녹색 버튼, 다음 페이지의 지도를 보려면 녹색 화살표를 클릭하세요.


METAR-TAF: